Vendinga, Russia
Current Conditions -  °F | °C
As of 11:00 AM on Friday 31 Oct 2014 (Local Time) from UUYY Reporting Station
Overcast Overcast  
Wind Chill: 28°   Ceiling: 3000
Heat Index: 34°   Visibility: 6mi
Dew Point: 30°   Wind: 7mph
Humidity: 87%   Direction: 200°SSW
Pressure: 29.74"   Gusts: NA
Location:  63.45°N, 48°E
Report Text: UUYY 310800Z 20003MPS 9000 OVC030 01/M01 Q1007 NOSIG 1932//49 RMK QFE747/0996
Loading
Personal Weather Stations






























Interactive Weather Map
Tropical Storm Tracking
New forecast layout! Learn more

10-Day Weather Forecast

Advertisements
Track Severe Weather on mobile